Time;durP1;ratioP1;P1;durP2;ratioP2;P2;SDS_P1;SDS_P2;PMS_P1;PMS_P2;Temp;Humidity;BMP_temperature;BMP_pressure;BME280_temperature;BME280_humidity;BME280_pressure;Samples;Min_cycle;Max_cycle;Signal;HPM_P1;HPM_P2
2022/02/11 00:10:55;;;;;;;17.67;8.23;;;;;;;;;;19899087;29;20518;-56
2022/02/11 00:20:57;;;;;;;13.63;8.95;;;;;;;;;;19897793;29;20098;-69
2022/02/11 01:12:05;;;;;;;14.45;9.30;;;;;;;;;;19895221;29;20050;-67
2022/02/11 02:13:48;;;;;;;14.10;8.45;;;;;;;;;;19890292;29;20062;-57
2022/02/11 02:34:14;;;;;;;18.48;9.25;;;;;;;;;;19889835;29;20058;-56
2022/02/11 03:16:13;;;;;;;20.08;8.15;;;;;;;;;;19902355;29;20398;-56
2022/02/11 03:57:12;;;;;;;16.85;9.43;;;;;;;;;;19899874;29;20105;-55
2022/02/11 05:09:12;;;;;;;17.25;8.40;;;;;;;;;;19894389;29;20115;-55
2022/02/11 05:19:15;;;;;;;13.45;7.97;;;;;;;;;;19893975;29;20058;-55
2022/02/11 05:29:18;;;;;;;18.33;9.20;;;;;;;;;;19893255;29;20412;-60
2022/02/11 05:39:21;;;;;;;14.95;8.60;;;;;;;;;;19892973;29;20607;-56
2022/02/11 05:49:24;;;;;;;17.23;8.27;;;;;;;;;;19892771;29;20061;-65
2022/02/11 05:59:27;;;;;;;22.60;9.77;;;;;;;;;;19890912;29;20054;-61
2022/02/11 06:09:31;;;;;;;16.27;8.38;;;;;;;;;;19890884;29;20054;-60
2022/02/11 06:19:36;;;;;;;47.37;11.10;;;;;;;;;;19890535;29;20059;-58
2022/02/11 06:29:38;;;;;;;16.40;8.40;;;;;;;;;;19890309;29;20078;-58
2022/02/11 06:39:42;;;;;;;24.60;9.88;;;;;;;;;;19890555;29;20050;-56
2022/02/11 06:49:46;;;;;;;22.92;13.18;;;;;;;;;;19889491;29;20397;-55
2022/02/11 06:59:49;;;;;;;32.75;15.68;;;;;;;;;;19889199;29;20059;-64
2022/02/11 07:09:54;;;;;;;23.02;11.77;;;;;;;;;;19888805;29;20055;-58
2022/02/11 07:19:58;;;;;;;25.90;10.60;;;;;;;;;;19887851;29;20459;-55
2022/02/11 07:30:02;;;;;;;48.97;24.98;;;;;;;;;;19887840;29;20062;-57
2022/02/11 07:40:07;;;;;;;21.27;11.67;;;;;;;;;;19889054;29;20070;-55
2022/02/11 07:50:11;;;;;;;14.73;8.80;;;;;;;;;;19901241;29;20116;-55
2022/02/11 08:00:17;;;;;;;24.08;13.35;;;;;;;;;;19899161;29;20067;-65
2022/02/11 08:10:20;;;;;;;24.60;11.00;;;;;;;;;;19899542;29;20050;-66
2022/02/11 08:20:23;;;;;;;21.60;11.35;;;;;;;;;;19898311;29;20126;-56
2022/02/11 08:30:25;;;;;;;19.77;9.05;;;;;;;;;;19897368;29;20047;-65
2022/02/11 08:40:28;;;;;;;18.23;10.80;;;;;;;;;;19898129;29;20139;-55
2022/02/11 08:50:31;;;;;;;20.00;9.68;;;;;;;;;;19896245;29;20502;-66
2022/02/11 09:00:33;;;;;;;21.50;10.77;;;;;;;;;;19895978;29;20066;-55
2022/02/11 09:10:36;;;;;;;19.55;11.15;;;;;;;;;;19895646;29;20054;-59
2022/02/11 09:20:38;;;;;;;33.38;14.65;;;;;;;;;;19894083;29;20063;-65
2022/02/11 09:30:41;;;;;;;24.08;11.35;;;;;;;;;;19893734;29;20137;-65
2022/02/11 09:40:50;;;;;;;27.33;15.75;;;;;;;;;;19893067;29;20111;-56
2022/02/11 09:50:58;;;;;;;30.50;15.23;;;;;;;;;;19892043;29;20090;-63
2022/02/11 10:01:00;;;;;;;28.58;14.75;;;;;;;;;;19891485;29;20115;-65
2022/02/11 10:11:05;;;;;;;33.22;13.80;;;;;;;;;;19890112;29;20058;-55
2022/02/11 10:21:09;;;;;;;29.00;15.77;;;;;;;;;;19891987;29;20496;-64
2022/02/11 10:31:22;;;;;;;35.95;14.73;;;;;;;;;;19890439;29;20046;-56
2022/02/11 10:41:25;;;;;;;28.50;15.77;;;;;;;;;;19889489;29;20070;-66
2022/02/11 10:51:29;;;;;;;16.98;9.75;;;;;;;;;;19883051;29;20147;-69
2022/02/11 11:01:32;;;;;;;29.77;14.63;;;;;;;;;;19834082;29;20147;-55
2022/02/11 11:11:34;;;;;;;28.83;12.73;;;;;;;;;;19876525;29;20135;-61
2022/02/11 11:22:10;;;;;;;34.45;13.18;;;;;;;;;;19749368;30;20059;-69
2022/02/11 11:32:13;;;;;;;25.40;11.40;;;;;;;;;;19754833;30;20059;-58
2022/02/11 11:42:17;;;;;;;18.30;10.68;;;;;;;;;;19807464;30;20062;-53
2022/02/11 11:52:20;;;;;;;33.60;11.53;;;;;;;;;;19822400;30;20055;-55
2022/02/11 12:02:26;;;;;;;21.75;6.55;;;;;;;;;;19821269;30;20369;-58
2022/02/11 12:12:30;;;;;;;13.38;5.53;;;;;;;;;;19819908;30;20138;-61
2022/02/11 12:22:32;;;;;;;22.00;6.85;;;;;;;;;;19818407;29;20062;-56
2022/02/11 12:32:44;;;;;;;22.38;6.30;;;;;;;;;;19822281;29;20089;-67
2022/02/11 12:42:48;;;;;;;21.05;5.50;;;;;;;;;;19821806;30;20101;-58
2022/02/11 12:52:50;;;;;;;35.05;6.78;;;;;;;;;;19820875;30;20058;-59
2022/02/11 13:02:58;;;;;;;28.55;9.50;;;;;;;;;;19820911;30;20183;-58
2022/02/11 13:13:05;;;;;;;23.90;6.10;;;;;;;;;;19819216;30;20055;-70
2022/02/11 13:23:08;;;;;;;18.10;5.53;;;;;;;;;;19818262;29;20481;-56
2022/02/11 13:33:19;;;;;;;23.80;5.30;;;;;;;;;;19817034;30;20087;-70
2022/02/11 13:43:22;;;;;;;22.70;5.97;;;;;;;;;;19817048;29;20051;-59
2022/02/11 13:53:31;;;;;;;33.78;9.98;;;;;;;;;;19816944;30;20055;-64
2022/02/11 14:03:33;;;;;;;22.17;6.35;;;;;;;;;;19816324;30;20065;-57
2022/02/11 14:13:36;;;;;;;34.80;7.35;;;;;;;;;;19816064;30;20493;-58
2022/02/11 14:23:38;;;;;;;23.95;6.90;;;;;;;;;;19815278;30;20091;-59
2022/02/11 14:33:40;;;;;;;23.25;6.35;;;;;;;;;;19815020;30;20059;-70
2022/02/11 14:43:42;;;;;;;27.73;7.72;;;;;;;;;;19814958;30;20086;-63
2022/02/11 14:53:44;;;;;;;26.58;6.78;;;;;;;;;;19823918;29;20412;-68
2022/02/11 15:03:47;;;;;;;25.85;8.00;;;;;;;;;;19828716;30;20062;-57
2022/02/11 15:13:49;;;;;;;25.25;6.68;;;;;;;;;;19828367;30;20063;-57
2022/02/11 15:23:51;;;;;;;31.05;7.43;;;;;;;;;;19811593;30;20060;-58
2022/02/11 15:33:53;;;;;;;24.05;6.75;;;;;;;;;;19827596;30;20151;-68
2022/02/11 15:43:55;;;;;;;26.45;8.00;;;;;;;;;;19826647;30;20074;-58
2022/02/11 15:53:57;;;;;;;25.60;6.30;;;;;;;;;;19825395;30;20093;-57
2022/02/11 16:04:01;;;;;;;26.77;6.65;;;;;;;;;;19823574;29;20143;-69
2022/02/11 16:14:03;;;;;;;24.47;7.17;;;;;;;;;;19824004;30;20421;-57
2022/02/11 16:24:06;;;;;;;24.10;6.10;;;;;;;;;;19820903;29;20063;-59
2022/02/11 16:34:09;;;;;;;46.53;16.27;;;;;;;;;;19821250;30;20493;-62
2022/02/11 16:44:11;;;;;;;24.85;7.78;;;;;;;;;;19821505;30;20485;-60
2022/02/11 16:54:13;;;;;;;32.92;9.80;;;;;;;;;;19820401;30;20055;-64
2022/02/11 17:04:15;;;;;;;31.90;9.13;;;;;;;;;;19819728;30;20051;-67
2022/02/11 17:14:17;;;;;;;17.38;6.38;;;;;;;;;;19818569;29;20066;-64
2022/02/11 17:24:20;;;;;;;34.88;7.85;;;;;;;;;;19818312;29;20098;-67
2022/02/11 17:34:22;;;;;;;32.35;9.98;;;;;;;;;;19817754;30;20094;-72
2022/02/11 17:44:24;;;;;;;28.90;5.90;;;;;;;;;;19817846;30;20139;-70
2022/02/11 17:54:26;;;;;;;24.05;5.95;;;;;;;;;;19817137;30;20055;-61
2022/02/11 18:04:33;;;;;;;17.85;4.10;;;;;;;;;;19819815;30;20180;-62
2022/02/11 18:14:35;;;;;;;15.85;4.13;;;;;;;;;;19816213;30;20063;-63
2022/02/11 18:24:37;;;;;;;23.35;5.63;;;;;;;;;;19814010;29;20526;-60
2022/02/11 18:34:39;;;;;;;15.25;4.72;;;;;;;;;;19814569;30;20063;-57
2022/02/11 18:44:41;;;;;;;13.65;4.95;;;;;;;;;;19814426;30;20455;-54
2022/02/11 18:54:44;;;;;;;24.67;5.90;;;;;;;;;;19813428;30;20055;-55
2022/02/11 19:04:48;;;;;;;21.27;6.07;;;;;;;;;;19813946;30;20051;-61
2022/02/11 19:14:51;;;;;;;;;;;;;;;;;;19797644;30;20056;-56
2022/02/11 19:24:53;;;;;;;20.85;6.07;;;;;;;;;;19813691;30;20371;-55
2022/02/11 19:34:55;;;;;;;20.25;5.47;;;;;;;;;;19813828;29;20150;-58
2022/02/11 19:44:57;;;;;;;16.10;4.65;;;;;;;;;;19826056;30;20051;-58
2022/02/11 19:54:59;;;;;;;21.25;4.85;;;;;;;;;;19826539;30;20508;-56
2022/02/11 20:05:01;;;;;;;29.35;5.60;;;;;;;;;;19825903;30;20055;-56
2022/02/11 20:15:04;;;;;;;22.13;7.60;;;;;;;;;;19824007;30;20086;-55
2022/02/11 20:25:06;;;;;;;20.42;6.00;;;;;;;;;;19822722;29;20421;-57
2022/02/11 20:35:08;;;;;;;23.73;6.95;;;;;;;;;;19822723;30;20147;-54
2022/02/11 20:45:10;;;;;;;18.45;6.97;;;;;;;;;;19822611;30;20115;-57
2022/02/11 20:55:13;;;;;;;22.55;5.85;;;;;;;;;;19821505;29;20143;-57
2022/02/11 21:05:15;;;;;;;18.63;5.90;;;;;;;;;;19820957;30;20059;-55
2022/02/11 21:15:18;;;;;;;28.73;6.53;;;;;;;;;;19803823;30;20194;-56
2022/02/11 21:25:20;;;;;;;32.65;11.93;;;;;;;;;;19818899;29;20086;-57
2022/02/11 21:35:22;;;;;;;32.80;11.95;;;;;;;;;;19818883;30;20083;-56
2022/02/11 21:45:25;;;;;;;22.23;7.38;;;;;;;;;;19818045;30;20142;-60
2022/02/11 21:55:27;;;;;;;31.85;9.68;;;;;;;;;;19818424;30;20485;-58
2022/02/11 22:05:29;;;;;;;23.30;6.75;;;;;;;;;;19816098;30;20055;-64
2022/02/11 22:15:32;;;;;;;25.52;7.78;;;;;;;;;;19816672;30;20062;-60
2022/02/11 22:25:34;;;;;;;25.95;9.15;;;;;;;;;;19816160;29;20059;-63
2022/02/11 22:35:36;;;;;;;25.63;6.63;;;;;;;;;;19816172;30;20124;-55
2022/02/11 22:45:40;;;;;;;25.27;8.45;;;;;;;;;;19815189;30;20142;-55
2022/02/11 22:55:41;;;;;;;28.02;8.50;;;;;;;;;;19814814;30;20051;-67
2022/02/11 23:05:53;;;;;;;24.60;8.30;;;;;;;;;;19814271;30;20071;-58
2022/02/11 23:15:56;;;;;;;23.50;7.32;;;;;;;;;;19823914;29;20513;-64
2022/02/11 23:25:58;;;;;;;41.60;17.05;;;;;;;;;;19827831;30;20063;-56
2022/02/11 23:36:00;;;;;;;25.00;8.43;;;;;;;;;;19826903;30;20051;-59
2022/02/11 23:46:02;;;;;;;28.25;10.40;;;;;;;;;;19826442;30;20087;-65
2022/02/11 23:56:04;;;;;;;36.55;11.07;;;;;;;;;;19826056;30;20519;-64
